Time;durP1;ratioP1;P1;durP2;ratioP2;P2;SDS_P1;SDS_P2;PMS_P1;PMS_P2;Temp;Humidity;BMP_temperature;BMP_pressure;BME280_temperature;BME280_humidity;BME280_pressure;Samples;Min_cycle;Max_cycle;Signal;HPM_P1;HPM_P2
2022/05/06 00:00:47;;;;;;;;;19.75;18.00;;;;;18.20;48.57;101976.47;2078646;28;48181;-58
2022/05/06 00:01:50;;;;;;;;;20.00;19.50;;;;;18.18;48.67;101976.53;2070876;28;47638;-58
2022/05/06 00:02:51;;;;;;;;;22.20;20.20;;;;;18.19;48.67;101969.34;2062352;28;47757;-58
2022/05/06 00:03:52;;;;;;;;;21.60;21.60;;;;;18.18;48.59;101976.53;2076325;28;48212;-58
2022/05/06 00:04:52;;;;;;;;;25.00;24.50;;;;;18.18;48.52;101976.53;2076832;28;48105;-58
2022/05/06 00:05:53;;;;;;;;;19.50;18.75;;;;;18.18;48.74;101967.59;2079235;28;48020;-58
2022/05/06 00:06:53;;;;;;;;;26.75;21.50;;;;;18.17;48.50;101974.75;2072347;28;47096;-57
2022/05/06 00:07:53;;;;;;;;;22.75;21.50;;;;;18.17;48.78;101979.25;2088341;28;47532;-58
2022/05/06 00:08:55;;;;;;;;;22.50;21.50;;;;;18.15;48.83;101970.34;2096580;28;47392;-59
2022/05/06 00:09:55;;;;;;;;;17.40;17.20;;;;;18.12;48.51;101971.34;2091705;28;48013;-58
2022/05/06 00:10:56;;;;;;;;;22.25;20.00;;;;;18.11;48.76;101983.00;2080440;28;47995;-59
2022/05/06 00:11:56;;;;;;;;;21.75;19.00;;;;;18.11;49.06;101982.13;2095487;28;47531;-58
2022/05/06 00:12:56;;;;;;;;;26.25;22.25;;;;;18.09;48.79;101976.81;2093239;28;47231;-57
2022/05/06 00:13:57;;;;;;;;;23.00;22.00;;;;;18.08;48.77;101975.06;2095617;28;51945;-59
2022/05/06 00:14:58;;;;;;;;;21.40;21.40;;;;;18.07;48.83;101981.38;2093606;28;47815;-58
2022/05/06 00:15:59;;;;;;;;;22.00;21.80;;;;;18.06;49.22;101978.72;2089901;28;47819;-57
2022/05/06 00:16:59;;;;;;;;;25.75;23.75;;;;;18.07;48.85;101977.81;2088353;28;46989;-57
2022/05/06 00:17:59;;;;;;;;;23.00;22.50;;;;;18.06;48.86;101979.59;2091795;28;47486;-58
2022/05/06 00:19:00;;;;;;;;;19.00;18.00;;;;;18.06;48.84;101970.66;2096541;28;48046;-58
2022/05/06 00:20:00;;;;;;;;;24.00;21.00;;;;;18.05;48.90;101974.28;2089082;28;48794;-59
2022/05/06 00:21:01;;;;;;;;;25.50;23.00;;;;;18.04;48.92;101972.50;2088425;28;48007;-58
2022/05/06 00:22:02;;;;;;;;;22.25;21.50;;;;;18.02;49.26;101975.25;2094281;28;47294;-59
2022/05/06 00:23:02;;;;;;;;;22.60;21.20;;;;;18.02;49.03;101971.69;2093658;28;47629;-55
2022/05/06 00:24:04;;;;;;;;;20.50;19.50;;;;;18.02;49.28;101969.88;2096025;28;47533;-57
2022/05/06 00:25:04;;;;;;;;;24.40;22.80;;;;;18.02;49.29;101975.25;2088379;28;47631;-57
2022/05/06 00:26:05;;;;;;;;;19.75;19.75;;;;;18.03;49.17;101973.44;2086490;28;47948;-57
2022/05/06 00:27:06;;;;;;;;;22.25;22.25;;;;;18.03;49.41;101977.00;2095081;28;47735;-58
2022/05/06 00:28:07;;;;;;;;;22.80;21.80;;;;;18.04;49.13;101969.81;2089287;28;47649;-57
2022/05/06 00:29:07;;;;;;;;;18.75;17.50;;;;;18.06;49.06;101973.34;2093327;28;47749;-59
2022/05/06 00:30:09;;;;;;;;;23.25;21.00;;;;;18.06;49.18;101976.03;2095752;28;48035;-58
2022/05/06 00:31:09;;;;;;;;;25.20;24.40;;;;;18.06;49.14;101976.03;2092400;28;47707;-58
2022/05/06 00:32:09;;;;;;;;;24.75;22.00;;;;;18.07;49.32;101975.13;2088147;28;47934;-58
2022/05/06 00:33:10;;;;;;;;;21.50;21.50;;;;;18.07;49.22;101980.47;2100551;28;47598;-59
2022/05/06 00:34:10;;;;;;;;;27.50;25.75;;;;;18.07;49.13;101983.16;2098449;28;47979;-58
2022/05/06 00:35:11;;;;;;;;;23.00;22.75;;;;;18.07;48.88;101983.16;2095592;28;47723;-58
2022/05/06 00:36:11;;;;;;;;;21.75;21.25;;;;;18.06;49.20;101979.59;2091145;28;47782;-58
2022/05/06 00:37:11;;;;;;;;;21.75;20.25;;;;;18.06;49.22;101978.72;2088854;28;47886;-57
2022/05/06 00:38:12;;;;;;;;;22.25;22.25;;;;;18.04;49.27;101984.16;2095146;28;47453;-58
2022/05/06 00:39:12;;;;;;;;;25.25;22.50;;;;;18.02;49.31;101977.94;2089243;28;47151;-58
2022/05/06 00:40:15;;;;;;;;;23.00;23.00;;;;;18.01;49.25;101973.50;2088026;28;47524;-58
2022/05/06 00:41:16;;;;;;;;;25.00;22.20;;;;;18.01;49.12;101976.19;2093715;28;48113;-57
2022/05/06 00:42:16;;;;;;;;;20.75;20.50;;;;;18.01;49.14;101976.19;2091068;28;45855;-56
2022/05/06 00:43:18;;;;;;;;;23.50;23.25;;;;;18.00;49.42;101978.91;2095136;28;47558;-56
2022/05/06 00:44:18;;;;;;;;;20.00;20.00;;;;;17.98;49.29;101978.09;2090883;28;47260;-57
2022/05/06 00:45:19;;;;;;;;;20.25;20.25;;;;;17.97;49.40;101966.47;2091911;28;48095;-57
2022/05/06 00:46:20;;;;;;;;;25.25;24.75;;;;;17.97;49.40;101974.53;2095564;28;47889;-57
2022/05/06 00:47:22;;;;;;;;;23.20;22.60;;;;;17.97;49.32;101970.97;2092790;28;47264;-58
2022/05/06 00:48:28;;;;;;;;;21.40;20.60;;;;;17.96;49.28;101971.91;2085743;28;47653;-58
2022/05/06 00:49:28;;;;;;;;;22.80;22.80;;;;;17.96;49.30;101974.56;2094953;28;48045;-60
2022/05/06 00:50:30;;;;;;;;;23.00;23.00;;;;;17.96;49.30;101974.56;2087144;28;47648;-58
2022/05/06 00:51:31;;;;;;;;;22.40;21.60;;;;;17.94;49.53;101971.94;2093282;28;47982;-58
2022/05/06 00:52:31;;;;;;;;;23.50;23.25;;;;;17.93;49.48;101964.81;2095922;28;47771;-58
2022/05/06 00:53:35;;;;;;;;;27.50;23.75;;;;;17.91;49.55;101964.88;2089643;28;47373;-58
2022/05/06 00:54:38;;;;;;;;;27.00;27.00;;;;;17.90;49.28;101970.25;2094457;28;47437;-58
2022/05/06 00:55:38;;;;;;;;;25.80;24.40;;;;;17.89;49.49;101972.06;2088053;28;47500;-58
2022/05/06 00:56:39;;;;;;;;;21.00;21.00;;;;;17.87;49.35;101973.94;2088122;28;47345;-58
2022/05/06 00:57:39;;;;;;;;;24.75;22.75;;;;;17.87;49.65;101973.94;2088147;28;47586;-58
2022/05/06 00:58:42;;;;;;;;;25.00;23.75;;;;;17.85;49.53;101969.53;2087995;28;48371;-56
2022/05/06 01:01:05;;;;;;;;;30.00;26.20;;;;;17.78;49.85;101967.97;2080347;28;47867;-57
2022/05/06 01:02:06;;;;;;;;;18.00;16.40;;;;;17.76;49.79;101968.03;2088012;28;48382;-57
2022/05/06 01:03:06;;;;;;;;;29.00;27.25;;;;;17.74;49.86;101967.19;2087966;28;45895;-57
2022/05/06 01:04:07;;;;;;;;;21.00;21.00;;;;;17.73;49.86;101970.81;2087700;28;47595;-57
2022/05/06 01:05:09;;;;;;;;;24.60;24.60;;;;;17.71;49.86;101970.00;2087138;28;47560;-58
2022/05/06 01:06:15;;;;;;;;;21.80;20.00;;;;;17.69;49.90;101963.78;2082453;28;48170;-58
2022/05/06 01:07:19;;;;;;;;;20.40;20.40;;;;;17.68;49.83;101963.81;2087924;28;47416;-58
2022/05/06 01:08:20;;;;;;;;;24.20;22.80;;;;;17.65;49.95;101962.94;2087879;28;47814;-57
2022/05/06 01:09:20;;;;;;;;;24.00;22.20;;;;;17.65;50.22;101968.31;2087588;28;47365;-60
2022/05/06 01:10:21;;;;;;;;;21.25;21.25;;;;;17.65;49.92;101968.31;2086560;28;47158;-57
2022/05/06 01:11:22;;;;;;;;;23.50;20.75;;;;;17.63;50.10;101964.81;2090070;28;45939;-58
2022/05/06 01:12:22;;;;;;;;;27.00;25.00;;;;;17.63;50.00;101964.81;2090434;28;47720;-57
2022/05/06 01:13:23;;;;;;;;;21.50;20.75;;;;;17.63;50.05;101964.81;2095148;28;47481;-58
2022/05/06 01:14:32;;;;;;;;;23.40;21.80;;;;;17.62;49.83;101964.88;2088441;28;48310;-58
2022/05/06 01:15:32;;;;;;;;;25.80;25.80;;;;;17.61;50.21;101965.78;2089053;28;47579;-57
2022/05/06 01:16:34;;;;;;;;;21.25;21.00;;;;;17.60;50.33;101962.22;2095250;28;47553;-57
2022/05/06 01:17:34;;;;;;;;;24.60;23.60;;;;;17.59;50.29;101960.47;2089065;28;47614;-59
2022/05/06 01:18:35;;;;;;;;;21.25;21.25;;;;;17.61;50.15;101965.78;2092233;28;47898;-58
2022/05/06 01:19:35;;;;;;;;;23.75;22.75;;;;;17.60;50.13;101961.34;2091461;28;47196;-59
2022/05/06 01:20:42;;;;;;;;;23.75;23.75;;;;;17.59;50.51;101963.16;2087297;28;47588;-59
2022/05/06 01:21:52;;;;;;;;;23.40;20.80;;;;;17.59;50.60;101962.28;2087676;28;47524;-59
2022/05/06 01:22:57;;;;;;;;;20.60;20.00;;;;;17.59;50.39;101962.28;2089583;28;46500;-56
2022/05/06 01:23:58;;;;;;;;;28.80;26.00;;;;;17.60;50.11;101964.03;2088076;28;47649;-58
2022/05/06 01:25:01;;;;;;;;;22.00;20.75;;;;;17.60;50.55;101958.66;2091549;28;47231;-57
2022/05/06 01:26:01;;;;;;;;;27.80;25.00;;;;;17.60;50.22;101958.66;2088830;28;47784;-57
2022/05/06 01:27:06;;;;;;;;;26.25;26.25;;;;;17.59;50.52;101959.59;2084573;28;47632;-58
2022/05/06 01:28:07;;;;;;;;;21.80;21.80;;;;;17.58;50.38;101961.41;2085442;28;47995;-57
2022/05/06 01:29:09;;;;;;;;;21.75;19.25;;;;;17.59;50.46;101959.59;2088138;28;47394;-57
2022/05/06 01:30:12;;;;;;;;;21.60;19.80;;;;;17.59;50.26;101965.84;2090237;28;47489;-58
2022/05/06 01:31:21;;;;;;;;;21.40;18.60;;;;;17.58;50.31;101960.53;2090070;28;47571;-58
2022/05/06 01:32:22;;;;;;;;;23.00;20.60;;;;;17.57;50.74;101956.97;2087132;28;47214;-56
2022/05/06 01:33:24;;;;;;;;;19.40;19.40;;;;;17.57;50.53;101970.38;2086444;28;47640;-57
2022/05/06 01:34:28;;;;;;;;;23.80;22.00;;;;;17.55;50.35;101966.88;2070333;28;48012;-58
2022/05/06 01:35:30;;;;;;;;;25.00;24.60;;;;;17.53;50.68;101966.03;2064025;28;47790;-58
2022/05/06 01:36:30;;;;;;;;;25.60;25.00;;;;;17.51;50.66;101970.56;2080475;28;46273;-58
2022/05/06 01:37:36;;;;;;;;;24.50;22.75;;;;;17.50;50.53;101962.56;2073114;28;45820;-59
2022/05/06 01:38:40;;;;;;;;;29.40;25.20;;;;;17.49;50.68;101968.84;2070165;28;47877;-58
2022/05/06 01:39:48;;;;;;;;;25.00;22.60;;;;;17.47;50.60;101963.53;2081810;28;48049;-58
2022/05/06 01:41:21;;;;;;;;;23.40;21.60;;;;;17.49;50.81;101971.53;2062713;28;47911;-59
2022/05/06 01:42:23;;;;;;;;;23.60;22.80;;;;;17.47;50.52;101970.72;2079588;28;47988;-58
2022/05/06 01:43:25;;;;;;;;;27.00;25.80;;;;;17.47;50.70;101974.28;2078011;28;47222;-58
2022/05/06 01:44:30;;;;;;;;;25.00;24.40;;;;;17.46;50.74;101966.28;2082811;28;47541;-58
2022/05/06 01:45:34;;;;;;;;;25.00;24.00;;;;;17.46;50.79;101963.59;2081310;28;47487;-58
2022/05/06 01:46:36;;;;;;;;;25.00;24.20;;;;;17.44;50.59;101966.31;2078792;28;47730;-58
2022/05/06 01:47:38;;;;;;;;;23.80;23.40;;;;;17.46;50.65;101966.28;2082211;28;47085;-58
2022/05/06 01:48:41;;;;;;;;;28.00;26.80;;;;;17.44;50.51;101960.94;2078450;28;47974;-58
2022/05/06 01:49:43;;;;;;;;;24.00;23.00;;;;;17.44;51.16;101960.94;2078863;28;48128;-56
2022/05/06 01:50:45;;;;;;;;;28.80;26.20;;;;;17.44;50.64;101960.06;2083013;28;47250;-58
2022/05/06 01:51:47;;;;;;;;;21.60;21.00;;;;;17.45;50.87;101965.38;2079561;28;47706;-58
2022/05/06 01:52:50;;;;;;;;;24.80;23.20;;;;;17.45;50.96;101957.34;2081441;28;47646;-58
2022/05/06 01:53:51;;;;;;;;;26.40;23.20;;;;;17.44;50.97;101955.59;2083092;28;47661;-58
2022/05/06 01:54:52;;;;;;;;;24.20;24.20;;;;;17.44;50.97;101952.91;2079614;28;46916;-58
2022/05/06 01:55:52;;;;;;;;;26.25;23.25;;;;;17.44;50.81;101957.38;2080608;28;48367;-57
2022/05/06 01:56:53;;;;;;;;;26.50;24.25;;;;;17.44;50.78;101960.06;2082198;28;47557;-58
2022/05/06 01:57:53;;;;;;;;;21.50;20.75;;;;;17.44;50.88;101960.06;2078959;28;47669;-58
2022/05/06 01:58:54;;;;;;;;;18.50;18.50;;;;;17.43;50.58;101961.88;2083299;28;47526;-58
2022/05/06 01:59:54;;;;;;;;;26.50;24.75;;;;;17.44;50.79;101957.38;2080051;28;50349;-58
2022/05/06 02:00:55;;;;;;;;;25.50;24.75;;;;;17.42;51.05;101960.13;2080782;28;48118;-58
2022/05/06 02:01:55;;;;;;;;;23.00;23.00;;;;;17.43;50.94;101964.56;2083601;28;47881;-58
2022/05/06 02:02:56;;;;;;;;;18.00;18.00;;;;;17.42;51.17;101970.84;2078582;28;46050;-57
2022/05/06 02:05:19;;;;;;;;;24.40;22.80;;;;;17.44;50.82;101968.13;2078708;28;47681;-58
2022/05/06 02:06:19;;;;;;;;;24.40;24.20;;;;;17.43;50.83;101967.25;2079622;28;47883;-58
2022/05/06 02:07:20;;;;;;;;;23.25;23.00;;;;;17.44;51.04;101970.81;2089744;28;47760;-58
2022/05/06 02:08:20;;;;;;;;;26.75;26.25;;;;;17.42;50.98;101968.19;2087332;28;47569;-59
2022/05/06 02:09:21;;;;;;;;;26.50;23.25;;;;;17.42;51.00;101967.28;2083771;28;47532;-59
2022/05/06 02:10:23;;;;;;;;;27.25;27.25;;;;;17.42;51.05;101960.13;2086902;28;47973;-58
2022/05/06 02:11:23;;;;;;;;;27.20;25.60;;;;;17.42;51.02;101968.19;2086466;28;47262;-58
2022/05/06 02:12:24;;;;;;;;;24.25;23.25;;;;;17.42;50.87;101965.50;2091976;28;47382;-58
2022/05/06 02:13:24;;;;;;;;;23.25;23.25;;;;;17.41;50.92;101963.75;2087509;28;47327;-59
2022/05/06 02:14:25;;;;;;;;;26.25;23.25;;;;;17.41;50.95;101969.09;2092041;28;48083;-58
2022/05/06 02:15:25;;;;;;;;;26.00;24.75;;;;;17.40;51.21;101963.75;2089058;28;48244;-59
2022/05/06 02:16:26;;;;;;;;;28.75;25.00;;;;;17.38;50.95;101966.50;2087566;28;47318;-58
2022/05/06 02:17:26;;;;;;;;;25.50;24.75;;;;;17.37;50.98;101967.41;2095844;28;47537;-57
2022/05/06 02:18:26;;;;;;;;;24.50;24.50;;;;;17.38;50.94;101965.59;2091735;28;47752;-57
2022/05/06 02:19:27;;;;;;;;;26.75;25.00;;;;;17.37;51.02;101967.41;2094606;28;45569;-58
2022/05/06 02:20:27;;;;;;;;;20.25;18.75;;;;;17.38;50.96;101968.28;2094992;28;47264;-58
2022/05/06 02:21:28;;;;;;;;;26.50;26.50;;;;;17.38;51.09;101962.94;2093797;28;47632;-59
2022/05/06 02:22:29;;;;;;;;;24.00;23.00;;;;;17.36;51.19;101969.22;2097702;28;48025;-59
2022/05/06 02:23:30;;;;;;;;;27.60;25.60;;;;;17.36;51.00;101971.91;2092883;28;48088;-58
2022/05/06 02:24:30;;;;;;;;;25.50;22.50;;;;;17.35;51.15;101972.84;2095278;28;47709;-58
2022/05/06 02:25:31;;;;;;;;;26.75;23.50;;;;;17.34;50.98;101963.03;2096456;28;47886;-57
2022/05/06 02:26:31;;;;;;;;;22.50;21.75;;;;;17.33;51.03;101968.44;2091933;28;47296;-58
2022/05/06 02:27:31;;;;;;;;;25.50;23.50;;;;;17.34;50.93;101967.50;2095865;28;48240;-56
2022/05/06 02:28:32;;;;;;;;;22.75;22.00;;;;;17.33;51.26;101969.31;2093687;28;47227;-58
2022/05/06 02:29:32;;;;;;;;;21.50;21.50;;;;;17.34;51.12;101964.84;2092634;28;47856;-58
2022/05/06 02:33:13;;;;;;;;;26.20;23.00;;;;;17.33;51.30;101960.38;2097581;28;47905;-58
2022/05/06 02:34:16;;;;;;;;;21.40;21.40;;;;;17.34;51.28;101962.16;2095596;28;47536;-58
2022/05/06 02:35:17;;;;;;;;;24.60;24.20;;;;;17.32;51.39;101954.16;2096046;28;48506;-58
2022/05/06 02:36:17;;;;;;;;;26.00;24.75;;;;;17.33;51.13;101965.75;2089959;28;47440;-58
2022/05/06 02:37:17;;;;;;;;;26.25;25.25;;;;;17.33;50.91;101963.06;2090161;28;48039;-58
2022/05/06 02:38:20;;;;;;;;;23.75;20.75;;;;;17.33;51.27;101965.75;2095842;28;47624;-56
2022/05/06 02:39:20;;;;;;;;;20.60;20.60;;;;;17.33;51.34;101963.97;2097635;27;47739;-57
2022/05/06 02:40:21;;;;;;;;;26.50;24.25;;;;;17.33;51.35;101960.38;2093083;28;47891;-58
2022/05/06 02:41:21;;;;;;;;;21.75;21.75;;;;;17.32;51.27;101959.50;2094805;28;47749;-58
2022/05/06 02:42:21;;;;;;;;;26.00;25.25;;;;;17.32;51.19;101958.63;2094252;28;47488;-58
2022/05/06 02:43:22;;;;;;;;;25.50;25.50;;;;;17.32;50.90;101962.19;2097149;28;47910;-58
2022/05/06 02:44:22;;;;;;;;;24.75;24.75;;;;;17.33;51.34;101958.59;2092516;28;48050;-58
2022/05/06 02:45:23;;;;;;;;;25.75;25.00;;;;;17.32;50.95;101955.94;2096220;28;47630;-58
2022/05/06 02:46:24;;;;;;;;;29.50;27.00;;;;;17.31;50.89;101963.13;2096673;28;47964;-57
2022/05/06 02:47:25;;;;;;;;;26.20;26.20;;;;;17.31;51.08;101962.25;2093821;28;47370;-57
2022/05/06 02:48:26;;;;;;;;;22.25;18.75;;;;;17.30;51.18;101960.50;2098426;28;48620;-57
2022/05/06 02:49:26;;;;;;;;;27.75;25.50;;;;;17.28;51.24;101962.34;2097973;28;47276;-59
2022/05/06 02:50:27;;;;;;;;;27.00;24.75;;;;;17.27;51.24;101963.25;2094473;28;47883;-58
2022/05/06 02:51:28;;;;;;;;;27.00;23.75;;;;;17.25;51.53;101962.41;2098336;28;47300;-58
2022/05/06 02:52:29;;;;;;;;;25.00;23.60;;;;;17.24;51.38;101966.91;2094358;28;47696;-57
2022/05/06 02:53:29;;;;;;;;;32.00;29.00;;;;;17.22;51.26;101963.38;2094602;28;47224;-58
2022/05/06 02:54:30;;;;;;;;;30.75;25.50;;;;;17.22;51.28;101967.88;2095764;28;47649;-57
2022/05/06 02:55:32;;;;;;;;;20.60;20.60;;;;;17.20;51.52;101964.38;2093699;28;47979;-56
2022/05/06 02:56:32;;;;;;;;;24.40;23.00;;;;;17.19;51.69;101971.53;2097944;28;47920;-56
2022/05/06 02:57:33;;;;;;;;;25.75;23.50;;;;;17.17;51.79;101965.34;2096621;28;47327;-57
2022/05/06 02:58:33;;;;;;;;;23.50;23.25;;;;;17.17;51.57;101964.47;2094137;28;47780;-57
2022/05/06 02:59:34;;;;;;;;;27.00;22.25;;;;;17.16;51.31;101968.94;2098873;28;47556;-57
2022/05/06 03:00:34;;;;;;;;;28.25;26.50;;;;;17.16;51.41;101970.75;2093917;28;47404;-57
2022/05/06 03:01:34;;;;;;;;;27.75;27.00;;;;;17.15;51.66;101971.66;2096050;28;47947;-57
2022/05/06 03:02:35;;;;;;;;;30.00;27.75;;;;;17.14;51.38;101973.44;2096179;28;47321;-58
2022/05/06 03:03:36;;;;;;;;;27.25;26.75;;;;;17.14;51.63;101976.13;2093305;28;47618;-58
2022/05/06 03:04:36;;;;;;;;;27.75;27.75;;;;;17.13;51.75;101974.38;2097620;28;47730;-58
2022/05/06 03:05:37;;;;;;;;;29.75;27.00;;;;;17.13;51.53;101979.75;2095513;28;47760;-57
2022/05/06 03:06:39;;;;;;;;;28.75;26.25;;;;;17.13;51.49;101969.00;2094569;28;46815;-57
2022/05/06 03:07:41;;;;;;;;;29.60;26.00;;;;;17.15;51.52;101974.31;2098292;28;47720;-57
2022/05/06 03:08:41;;;;;;;;;27.80;25.80;;;;;17.15;51.68;101977.00;2094322;28;47977;-58
2022/05/06 03:09:42;;;;;;;;;25.50;23.50;;;;;17.14;51.89;101978.81;2095604;28;47621;-57
2022/05/06 03:10:42;;;;;;;;;28.75;27.50;;;;;17.13;51.69;101974.38;2088881;28;47091;-57
2022/05/06 03:11:43;;;;;;;;;23.40;23.40;;;;;17.14;51.74;101980.63;2088102;28;47670;-58
2022/05/06 03:12:43;;;;;;;;;25.00;23.75;;;;;17.12;51.79;101972.63;2092503;28;47900;-58
2022/05/06 03:13:44;;;;;;;;;28.00;25.75;;;;;17.11;51.77;101970.00;2090096;28;47962;-58
2022/05/06 03:14:44;;;;;;;;;24.75;22.50;;;;;17.11;51.42;101978.03;2091709;28;47493;-58
2022/05/06 03:15:45;;;;;;;;;32.75;30.00;;;;;17.10;51.87;101976.28;2089681;28;47845;-58
2022/05/06 03:16:45;;;;;;;;;24.00;23.75;;;;;17.06;52.07;101967.44;2089633;28;47499;-59
2022/05/06 03:17:46;;;;;;;;;23.50;23.50;;;;;17.05;51.92;101973.75;2089961;28;47687;-58
2022/05/06 03:18:46;;;;;;;;;28.00;26.00;;;;;17.02;52.00;101977.41;2089826;28;47407;-58
2022/05/06 03:19:47;;;;;;;;;20.50;20.50;;;;;17.02;52.18;101977.41;2089675;28;47370;-58
2022/05/06 03:20:47;;;;;;;;;22.00;22.00;;;;;17.01;52.15;101969.38;2089941;28;47192;-59
2022/05/06 03:21:52;;;;;;;;;25.50;25.50;;;;;17.02;52.17;101971.13;2089844;28;46565;-58
2022/05/06 03:22:53;;;;;;;;;26.00;21.20;;;;;17.02;52.04;101972.03;2089935;28;47520;-58
2022/05/06 03:23:54;;;;;;;;;23.20;22.20;;;;;17.02;51.78;101973.81;2090019;28;45542;-58
2022/05/06 03:24:55;;;;;;;;;27.20;25.80;;;;;17.02;51.80;101971.13;2090094;28;47627;-56
2022/05/06 03:25:55;;;;;;;;;26.25;24.25;;;;;17.02;52.06;101974.72;2089746;28;48245;-57
2022/05/06 03:26:56;;;;;;;;;22.75;22.75;;;;;17.03;51.99;101972.91;2089972;28;48252;-58
2022/05/06 03:27:59;;;;;;;;;28.25;27.75;;;;;17.01;51.66;101975.59;2088578;28;47696;-56
2022/05/06 03:28:59;;;;;;;;;28.80;26.80;;;;;17.01;51.72;101972.03;2087198;28;48432;-58
2022/05/06 03:30:00;;;;;;;;;18.00;17.25;;;;;16.98;51.85;101973.03;2088624;28;48405;-58
2022/05/06 03:31:01;;;;;;;;;25.00;23.25;;;;;16.98;52.12;101972.13;2088439;28;47415;-58
2022/05/06 03:32:02;;;;;;;;;26.60;26.20;;;;;16.96;52.14;101974.00;2088963;28;48058;-59
2022/05/06 03:33:03;;;;;;;;;26.25;26.00;;;;;16.97;51.91;101975.75;2088569;28;47664;-56
2022/05/06 03:34:05;;;;;;;;;22.40;22.40;;;;;16.98;52.17;101972.13;2088563;28;47786;-56
2022/05/06 03:35:06;;;;;;;;;23.00;23.00;;;;;16.98;52.36;101975.69;2104628;28;47683;-58
2022/05/06 03:36:09;;;;;;;;;26.20;25.00;;;;;16.98;52.19;101973.03;2104649;27;47929;-58
2022/05/06 03:37:09;;;;;;;;;28.40;27.20;;;;;16.98;51.90;101973.03;2087362;28;47492;-59
2022/05/06 03:38:10;;;;;;;;;28.75;27.50;;;;;16.99;52.03;101973.91;2088634;28;47204;-58
2022/05/06 03:39:11;;;;;;;;;25.50;24.75;;;;;16.99;52.00;101976.56;2112924;27;46081;-58
2022/05/06 03:40:12;;;;;;;;;23.25;22.25;;;;;16.99;51.95;101976.56;2112400;27;47279;-58
2022/05/06 03:41:12;;;;;;;;;24.80;22.40;;;;;16.97;52.15;101976.63;2104100;28;47485;-56
2022/05/06 03:42:13;;;;;;;;;27.50;24.00;;;;;16.97;51.99;101979.31;2103974;28;47666;-58
2022/05/06 03:43:14;;;;;;;;;28.00;25.00;;;;;16.96;51.97;101976.66;2112794;27;48024;-57
2022/05/06 03:44:14;;;;;;;;;25.25;23.50;;;;;16.95;52.09;101972.22;2109144;27;47364;-57
2022/05/06 03:45:14;;;;;;;;;21.75;21.75;;;;;16.93;52.01;101976.75;2104250;27;47554;-57
2022/05/06 03:46:15;;;;;;;;;28.75;28.75;;;;;16.93;52.14;101979.44;2108656;27;47934;-57
2022/05/06 03:47:15;;;;;;;;;29.50;28.25;;;;;16.91;52.48;101976.81;2112770;27;47189;-57
2022/05/06 03:48:16;;;;;;;;;27.00;24.75;;;;;16.89;52.12;101975.94;2112778;27;47510;-57
2022/05/06 03:49:16;;;;;;;;;30.50;26.25;;;;;16.88;52.53;101981.34;2109286;27;48050;-58
2022/05/06 03:51:35;;;;;;;;;28.80;26.80;;;;;16.86;52.55;101977.84;2079302;28;47850;-57
2022/05/06 03:52:36;;;;;;;;;27.00;23.50;;;;;16.84;52.41;101974.34;2086782;28;47611;-55
2022/05/06 03:53:36;;;;;;;;;27.50;24.75;;;;;16.82;52.14;101974.38;2104438;27;47723;-57
2022/05/06 03:54:36;;;;;;;;;31.50;28.50;;;;;16.82;52.08;101973.50;2104468;27;48116;-58
2022/05/06 03:55:37;;;;;;;;;26.75;25.25;;;;;16.82;52.49;101973.50;2110638;27;47620;-58
2022/05/06 03:56:37;;;;;;;;;28.75;27.50;;;;;16.80;52.43;101970.88;2112150;27;47729;-57
2022/05/06 03:57:38;;;;;;;;;27.00;22.50;;;;;16.81;52.39;101977.09;2106664;27;47275;-57
2022/05/06 03:58:38;;;;;;;;;26.00;23.75;;;;;16.79;52.66;101979.84;2104741;27;47972;-57
2022/05/06 03:59:39;;;;;;;;;28.50;27.50;;;;;16.79;52.46;101978.94;2113063;27;47789;-58
2022/05/06 04:00:40;;;;;;;;;25.75;24.50;;;;;16.77;52.77;101971.84;2112617;27;47731;-58
2022/05/06 04:01:40;;;;;;;;;27.60;25.20;;;;;16.77;52.21;101985.25;2112927;27;47322;-56
2022/05/06 04:02:41;;;;;;;;;26.75;25.50;;;;;16.77;52.40;101984.38;2112060;27;48307;-57
2022/05/06 04:03:41;;;;;;;;;25.00;24.50;;;;;16.77;52.39;101976.31;2112537;27;47133;-58
2022/05/06 04:04:42;;;;;;;;;27.00;25.00;;;;;16.75;52.56;101981.69;2112461;27;47512;-58
2022/05/06 04:05:43;;;;;;;;;29.75;26.25;;;;;16.76;52.55;101985.25;2112730;27;47085;-59
2022/05/06 04:06:44;;;;;;;;;28.80;27.80;;;;;16.75;52.38;101987.06;2110913;27;47754;-58
2022/05/06 04:07:44;;;;;;;;;24.75;24.75;;;;;16.75;52.55;101989.72;2104243;27;47918;-59
2022/05/06 04:08:44;;;;;;;;;31.00;28.25;;;;;16.75;53.06;101989.72;2108874;27;47797;-59
2022/05/06 04:09:45;;;;;;;;;28.50;26.50;;;;;16.75;52.80;101989.72;2108820;27;47732;-58
2022/05/06 04:10:45;;;;;;;;;21.75;21.75;;;;;16.76;52.46;101993.28;2107129;27;47167;-57
2022/05/06 04:11:46;;;;;;;;;20.50;20.50;;;;;16.75;52.88;101992.41;2107487;27;46554;-58
2022/05/06 04:12:46;;;;;;;;;29.25;26.25;;;;;16.75;53.11;101987.06;2111971;27;47872;-57
2022/05/06 04:13:47;;;;;;;;;28.25;27.25;;;;;16.77;53.03;101993.28;2112630;27;47600;-56
2022/05/06 04:14:48;;;;;;;;;29.20;29.00;;;;;16.78;52.72;101988.78;2086490;28;47538;-56
2022/05/06 04:15:50;;;;;;;;;26.00;24.00;;;;;16.78;53.02;101991.47;2086550;28;46435;-58
2022/05/06 04:16:50;;;;;;;;;30.60;26.60;;;;;16.79;53.07;101992.34;2105510;27;47890;-59
2022/05/06 04:17:51;;;;;;;;;27.75;26.75;;;;;16.78;52.69;101991.47;2092435;28;47225;-58
2022/05/06 04:18:51;;;;;;;;;28.50;28.50;;;;;16.79;52.75;102000.41;2091663;28;47207;-58
2022/05/06 04:23:48;;;;;;;;;26.60;25.00;;;;;16.81;52.98;101993.19;2088991;28;47607;-57
2022/05/06 04:24:49;;;;;;;;;28.00;26.50;;;;;16.80;53.13;101992.31;2089261;28;48083;-59
2022/05/06 04:25:49;;;;;;;;;16.75;16.00;;;;;16.79;52.70;101993.22;2088677;28;47732;-58
2022/05/06 04:26:50;;;;;;;;;25.50;25.00;;;;;16.79;52.77;101997.72;2093101;28;47368;-59
2022/05/06 04:27:50;;;;;;;;;32.25;29.00;;;;;16.76;53.22;101991.50;2088183;28;47803;-59
2022/05/06 04:28:51;;;;;;;;;31.25;29.00;;;;;16.75;53.11;101996.91;2088915;28;47831;-59
2022/05/06 04:29:51;;;;;;;;;32.75;29.00;;;;;16.72;53.19;101994.31;2088723;28;47599;-59
2022/05/06 04:30:52;;;;;;;;;30.00;28.75;;;;;16.70;52.68;101991.66;2088182;28;48215;-58
2022/05/06 04:31:52;;;;;;;;;28.25;28.25;;;;;16.68;52.62;101996.19;2088788;28;47540;-58
2022/05/06 04:32:53;;;;;;;;;24.00;22.00;;;;;16.67;52.82;101991.75;2088943;28;47923;-59
2022/05/06 04:33:53;;;;;;;;;28.50;25.75;;;;;16.66;52.87;101992.66;2087820;28;47808;-59
2022/05/06 04:34:54;;;;;;;;;25.75;25.00;;;;;16.66;52.79;101997.13;2089194;28;47633;-58
2022/05/06 04:35:55;;;;;;;;;32.00;27.75;;;;;16.63;53.11;102000.75;2087396;28;47984;-58
2022/05/06 04:36:56;;;;;;;;;28.20;26.60;;;;;16.64;53.10;101998.94;2088339;28;48095;-56
2022/05/06 04:37:56;;;;;;;;;30.75;28.00;;;;;16.62;53.07;102007.03;2089197;28;47828;-58
2022/05/06 04:38:57;;;;;;;;;27.75;26.75;;;;;16.61;52.81;101997.22;2090585;28;47717;-58
2022/05/06 04:39:58;;;;;;;;;29.50;28.25;;;;;16.62;53.05;102009.72;2089192;28;47713;-58
2022/05/06 04:41:00;;;;;;;;;26.00;24.20;;;;;16.63;53.03;102002.56;2089062;28;47653;-58
2022/05/06 04:42:00;;;;;;;;;29.60;23.80;;;;;16.62;52.94;101999.00;2088162;28;47667;-59
2022/05/06 04:43:00;;;;;;;;;34.75;29.75;;;;;16.63;53.49;102000.75;2088867;28;48111;-58
2022/05/06 04:44:01;;;;;;;;;32.00;29.50;;;;;16.62;52.91;102006.16;2086521;28;47351;-56
2022/05/06 04:45:01;;;;;;;;;32.50;30.25;;;;;16.61;52.96;102009.75;2088931;28;47271;-58
2022/05/06 04:46:02;;;;;;;;;27.50;24.75;;;;;16.59;53.04;102011.59;2095744;28;47416;-59
2022/05/06 04:47:02;;;;;;;;;28.75;27.00;;;;;16.56;53.41;102007.22;2086648;28;47693;-57
2022/05/06 04:48:05;;;;;;;;;28.75;27.25;;;;;16.55;53.41;102009.94;2087217;28;47313;-57
2022/05/06 04:49:05;;;;;;;;;27.60;26.60;;;;;16.53;53.66;102009.09;2089412;28;47762;-58